Time;durP1;ratioP1;P1;durP2;ratioP2;P2;SDS_P1;SDS_P2;PMS_P1;PMS_P2;Temp;Humidity;BMP_temperature;BMP_pressure;BME280_temperature;BME280_humidity;BME280_pressure;Samples;Min_cycle;Max_cycle;Signal;HPM_P1;HPM_P2
2022/01/09 00:00:24;;;;;;;6.40;4.60;;;;;;;3.72;100.00;98557.91;4971533;28;20027;-89
2022/01/09 00:02:51;;;;;;;6.80;4.90;;;;;;;3.72;100.00;98571.06;4981677;28;20030;-89
2022/01/09 00:05:16;;;;;;;9.02;5.65;;;;;;;3.76;100.00;98585.72;4980350;28;20058;-90
2022/01/09 00:07:42;;;;;;;6.47;4.78;;;;;;;3.79;100.00;98593.44;4979357;28;20023;-90
2022/01/09 00:10:08;;;;;;;7.78;4.68;;;;;;;3.78;100.00;98610.19;4976198;28;20045;-91
2022/01/09 00:12:34;;;;;;;7.57;5.90;;;;;;;3.77;100.00;98620.81;4985353;28;20026;-89
2022/01/09 00:14:59;;;;;;;9.85;7.50;;;;;;;3.84;100.00;98622.13;4973020;28;20026;-90
2022/01/09 00:17:25;;;;;;;13.75;8.18;;;;;;;3.84;100.00;98627.38;4975497;28;20025;-90
2022/01/09 00:19:50;;;;;;;23.30;11.30;;;;;;;3.92;100.00;98652.31;4988533;28;20042;-91
2022/01/09 00:22:18;;;;;;;17.20;10.93;;;;;;;3.90;100.00;98642.81;4986881;28;20034;-90
2022/01/09 00:24:43;;;;;;;18.90;11.25;;;;;;;3.91;100.00;98658.50;4977481;28;20026;-93
2022/01/09 00:27:09;;;;;;;12.00;8.30;;;;;;;3.98;100.00;98680.91;4979212;28;20421;-92
2022/01/09 00:29:34;;;;;;;5.03;4.28;;;;;;;4.00;100.00;98700.09;4971465;28;20041;-92
2022/01/09 00:31:59;;;;;;;5.88;3.65;;;;;;;3.96;100.00;98719.63;4975556;28;20200;-93
2022/01/09 00:34:25;;;;;;;7.20;3.80;;;;;;;3.93;100.00;98737.38;4971037;28;20089;-92
2022/01/09 00:36:50;;;;;;;4.72;3.42;;;;;;;3.84;100.00;98736.13;4970788;28;20038;-91
2022/01/09 00:39:16;;;;;;;5.60;3.10;;;;;;;3.86;100.00;98747.41;4970024;28;20027;-92
2022/01/09 00:41:41;;;;;;;9.43;3.40;;;;;;;3.78;100.00;98735.63;4970487;28;20362;-91
2022/01/09 00:44:06;;;;;;;4.68;3.13;;;;;;;3.71;100.00;98738.59;4970259;28;20043;-93
2022/01/09 00:46:35;;;;;;;9.55;3.10;;;;;;;3.73;100.00;98759.56;4972996;28;20034;-93
2022/01/09 00:49:01;;;;;;;9.52;3.40;;;;;;;3.67;100.00;98759.91;4954953;28;20504;-92
2022/01/09 00:51:27;;;;;;;16.83;5.20;;;;;;;3.69;100.00;98777.31;4978573;28;20062;-92
2022/01/09 00:53:52;;;;;;;13.65;3.75;;;;;;;3.72;100.00;98778.91;4988434;28;20108;-96
2022/01/09 00:56:17;;;;;;;23.95;4.38;;;;;;;3.71;100.00;98782.47;4992449;28;20025;-91
2022/01/09 00:58:42;;;;;;;23.15;4.65;;;;;;;3.59;100.00;98794.53;4986264;28;20527;-95
2022/01/09 01:01:08;;;;;;;25.30;4.68;;;;;;;3.68;100.00;98824.75;4981768;28;20118;-95
2022/01/09 01:03:33;;;;;;;22.23;4.25;;;;;;;3.63;100.00;98830.25;4964345;28;20034;-96
2022/01/09 01:05:58;;;;;;;22.13;5.10;;;;;;;3.50;100.00;98816.06;4958572;28;20023;-95
2022/01/09 01:08:24;;;;;;;21.60;5.07;;;;;;;3.50;100.00;98819.53;4955296;28;20062;-95
2022/01/09 01:10:49;;;;;;;34.67;5.70;;;;;;;3.50;100.00;98843.22;4971695;28;20019;-95
2022/01/09 01:13:14;;;;;;;28.60;5.07;;;;;;;3.49;100.00;98843.31;4954907;28;20407;-94
2022/01/09 01:15:39;;;;;;;29.88;6.10;;;;;;;3.46;100.00;98840.84;4974587;28;20081;-94
2022/01/09 01:18:05;;;;;;;33.40;6.05;;;;;;;3.29;100.00;98817.22;4990522;28;20033;-94
2022/01/09 01:20:32;;;;;;;32.67;5.90;;;;;;;3.52;100.00;98861.56;4992361;28;20093;-96
2022/01/09 01:22:58;;;;;;;28.45;5.60;;;;;;;3.53;100.00;98862.41;4992199;28;20046;-93
2022/01/09 01:25:24;;;;;;;28.35;6.05;;;;;;;3.53;100.00;98878.19;4998534;28;20026;-94
2022/01/09 01:27:50;;;;;;;26.98;5.95;;;;;;;3.50;100.00;98885.31;5004555;28;20086;-95
2022/01/09 01:30:15;;;;;;;40.45;6.10;;;;;;;3.37;100.00;98865.84;4975679;28;20041;-92
2022/01/09 01:32:42;;;;;;;32.47;5.45;;;;;;;3.51;100.00;98912.44;4975911;28;20053;-94
2022/01/09 01:35:08;;;;;;;33.50;5.38;;;;;;;3.41;100.00;98896.31;4974681;28;20031;-93
2022/01/09 01:37:34;;;;;;;25.48;4.93;;;;;;;3.49;100.00;98923.06;4985449;28;20117;-93
2022/01/09 01:39:59;;;;;;;18.42;4.10;;;;;;;3.37;100.00;98904.44;4993869;28;20037;-93
2022/01/09 01:42:24;;;;;;;37.33;6.30;;;;;;;3.30;100.00;98900.44;4989734;28;20022;-93
2022/01/09 01:44:51;;;;;;;32.33;4.72;;;;;;;3.35;100.00;98922.09;4993307;28;20026;-93
2022/01/09 01:47:19;;;;;;;28.77;4.95;;;;;;;3.36;100.00;98929.06;4993459;28;20052;-92
2022/01/09 01:49:45;;;;;;;27.55;5.40;;;;;;;3.33;100.00;98927.41;4993136;28;20050;-92
2022/01/09 01:52:10;;;;;;;31.70;5.35;;;;;;;3.42;100.00;98952.38;4987896;28;20030;-92
2022/01/09 01:54:39;;;;;;;27.20;5.68;;;;;;;3.41;100.00;98959.44;4972964;28;20054;-92
2022/01/09 01:57:05;;;;;;;30.10;4.75;;;;;;;3.42;100.00;98966.38;4973162;28;20050;-93
2022/01/09 01:59:30;;;;;;;39.17;5.97;;;;;;;3.42;100.00;98976.91;4973801;28;20022;-92
2022/01/09 02:01:55;;;;;;;35.03;5.50;;;;;;;3.44;100.00;98969.81;4972492;28;20031;-93
2022/01/09 02:04:21;;;;;;;28.58;6.07;;;;;;;3.42;100.00;98971.66;4959452;28;20034;-93
2022/01/09 02:06:46;;;;;;;27.75;5.95;;;;;;;3.34;100.00;98967.72;4983986;28;20030;-92
2022/01/09 02:09:12;;;;;;;33.47;5.85;;;;;;;3.30;100.00;98988.03;4982469;28;20094;-93
2022/01/09 02:11:38;;;;;;;23.20;6.53;;;;;;;3.31;100.00;98981.88;4976428;28;20495;-91
2022/01/09 02:14:03;;;;;;;34.45;5.55;;;;;;;3.34;100.00;98991.38;4976542;28;20077;-91
2022/01/09 02:16:29;;;;;;;33.45;7.53;;;;;;;3.43;100.00;98994.41;4977133;28;20019;-92
2022/01/09 02:18:57;;;;;;;38.65;6.78;;;;;;;3.45;100.00;99008.31;4973768;28;20038;-93
2022/01/09 02:21:23;;;;;;;42.70;7.60;;;;;;;3.40;100.00;99005.06;4973553;28;20030;-92
2022/01/09 02:23:49;;;;;;;39.10;7.15;;;;;;;3.44;100.00;99006.63;4974071;28;20019;-92
2022/01/09 02:26:19;;;;;;;48.88;9.13;;;;;;;3.55;100.00;99023.63;4973025;28;20031;-92
2022/01/09 02:28:45;;;;;;;48.88;9.15;;;;;;;3.57;100.00;99033.16;4973293;28;20030;-91
2022/01/09 02:31:10;;;;;;;45.80;8.75;;;;;;;3.59;100.00;99033.91;4972738;28;20489;-93
2022/01/09 02:33:36;;;;;;;52.47;9.07;;;;;;;3.56;100.00;99030.63;4988538;28;20073;-94
2022/01/09 02:36:01;;;;;;;46.63;8.68;;;;;;;3.57;100.00;99030.53;4986973;28;20034;-91
2022/01/09 02:38:26;;;;;;;38.53;8.65;;;;;;;3.62;100.00;99046.91;4973538;28;20118;-92
2022/01/09 02:40:53;;;;;;;50.75;9.93;;;;;;;3.63;100.00;99045.13;4973135;28;20038;-92
2022/01/09 02:43:20;;;;;;;40.53;8.88;;;;;;;3.65;100.00;99052.03;4983118;28;20023;-91
2022/01/09 02:45:49;;;;;;;45.42;8.50;;;;;;;3.62;100.00;99051.31;4987689;28;20101;-90
2022/01/09 02:48:14;;;;;;;40.78;8.35;;;;;;;3.62;100.00;99067.13;4973087;28;20041;-93
2022/01/09 02:50:50;;;;;;;35.53;8.52;;;;;;;3.64;100.00;99070.53;4972972;28;20046;-92
2022/01/09 02:53:20;;;;;;;28.25;7.75;;;;;;;3.63;100.00;99080.19;4986630;28;20030;-92
2022/01/09 02:55:46;;;;;;;39.65;6.90;;;;;;;3.64;100.00;99087.16;4977420;28;20030;-92
2022/01/09 02:58:11;;;;;;;40.03;7.57;;;;;;;3.65;100.00;99095.91;4991349;28;20130;-93
2022/01/09 03:00:43;;;;;;;39.17;6.85;;;;;;;3.66;100.00;99098.44;4980672;28;20027;-94
2022/01/09 03:03:09;;;;;;;32.58;6.88;;;;;;;3.53;100.00;99088.63;4978153;28;20033;-92
2022/01/09 03:05:34;;;;;;;45.33;10.07;;;;;;;3.59;100.00;99109.34;4970478;28;20424;-93
2022/01/09 03:07:59;;;;;;;35.50;7.38;;;;;;;3.55;100.00;99124.44;4985604;28;20041;-94
2022/01/09 03:10:25;;;;;;;32.05;5.28;;;;;;;3.55;100.00;99126.22;4981963;28;20092;-91
2022/01/09 03:12:52;;;;;;;37.70;5.78;;;;;;;3.54;100.00;99137.66;4986189;28;20026;-93
2022/01/09 03:15:18;;;;;;;23.95;5.45;;;;;;;3.49;100.00;99125.59;4992342;28;20056;-92
2022/01/09 03:17:44;;;;;;;26.10;5.53;;;;;;;3.52;100.00;99145.66;4978006;28;20031;-91
2022/01/09 03:20:14;;;;;;;30.80;6.20;;;;;;;3.53;100.00;99147.34;4987378;28;20038;-93
2022/01/09 03:22:39;;;;;;;28.70;4.82;;;;;;;3.48;100.00;99150.22;4980135;28;20030;-93
2022/01/09 03:25:05;;;;;;;35.25;6.28;;;;;;;3.42;100.00;99160.16;4975840;28;20049;-92
2022/01/09 03:27:31;;;;;;;23.83;5.70;;;;;;;3.47;100.00;99169.56;4972843;28;20026;-92
2022/01/09 03:29:56;;;;;;;22.40;5.03;;;;;;;3.39;100.00;99163.81;4972233;28;20477;-93
2022/01/09 03:32:21;;;;;;;32.15;7.30;;;;;;;3.37;100.00;99172.69;4971796;28;20049;-94
2022/01/09 03:34:47;;;;;;;23.25;6.32;;;;;;;3.38;100.00;99187.53;4972705;28;20026;-94
2022/01/09 03:37:12;;;;;;;26.50;5.47;;;;;;;3.30;100.00;99190.53;4984949;28;20034;-94
2022/01/09 03:39:38;;;;;;;27.15;5.90;;;;;;;3.32;100.00;99188.69;4991116;28;20105;-94
2022/01/09 03:42:04;;;;;;;33.40;5.20;;;;;;;3.31;100.00;99202.78;4983490;28;20030;-94
2022/01/09 03:44:29;;;;;;;26.85;4.78;;;;;;;3.26;100.00;99210.03;4972950;28;20019;-93
2022/01/09 03:46:55;;;;;;;29.83;6.45;;;;;;;3.26;100.00;99207.41;4973062;28;20450;-94
2022/01/09 03:49:21;;;;;;;26.15;5.47;;;;;;;3.27;100.00;99216.97;4961979;28;20152;-93
2022/01/09 03:51:50;;;;;;;27.67;5.00;;;;;;;3.26;100.00;99217.91;4976912;28;20054;-92
2022/01/09 03:54:16;;;;;;;23.98;5.20;;;;;;;3.24;100.00;99235.53;4984916;28;20042;-93
2022/01/09 03:56:41;;;;;;;23.00;5.05;;;;;;;3.24;100.00;99235.53;4992129;28;20058;-93
2022/01/09 03:59:07;;;;;;;23.77;5.13;;;;;;;3.09;100.00;99223.94;4990050;28;20123;-93
2022/01/09 04:01:32;;;;;;;27.80;5.72;;;;;;;3.16;100.00;99245.53;4973324;28;20026;-94
2022/01/09 04:03:57;;;;;;;27.58;4.55;;;;;;;3.03;100.00;99247.03;4986697;28;20472;-95
2022/01/09 04:06:24;;;;;;;27.58;4.72;;;;;;;3.11;100.00;99266.78;4972217;28;20018;-95
2022/01/09 04:08:51;;;;;;;22.15;5.53;;;;;;;3.00;100.00;99269.88;4954178;28;20029;-92
2022/01/09 04:11:22;;;;;;;19.00;4.65;;;;;;;3.05;100.00;99276.72;4971663;28;20089;-92
2022/01/09 04:13:48;;;;;;;20.63;4.65;;;;;;;2.88;100.00;99259.06;4989272;28;20032;-93
2022/01/09 04:16:13;;;;;;;21.10;4.95;;;;;;;2.92;100.00;99273.78;4985692;28;20023;-94
2022/01/09 04:18:38;;;;;;;17.40;4.43;;;;;;;2.99;100.00;99302.34;4954579;28;20026;-93
2022/01/09 04:21:03;;;;;;;23.90;4.18;;;;;;;2.96;100.00;99301.63;4971744;28;20026;-93
2022/01/09 04:23:29;;;;;;;23.55;4.85;;;;;;;2.94;100.00;99301.72;4987584;28;20031;-94
2022/01/09 04:25:54;;;;;;;28.15;4.25;;;;;;;2.92;100.00;99319.31;4979668;28;20053;-92
2022/01/09 04:28:19;;;;;;;18.55;4.50;;;;;;;2.90;100.00;99309.81;4972118;28;20117;-93
2022/01/09 04:30:45;;;;;;;20.75;4.68;;;;;;;2.84;100.00;99316.16;4972501;28;20090;-92
2022/01/09 04:33:11;;;;;;;21.30;4.20;;;;;;;2.88;100.00;99322.13;4982231;28;20507;-94
2022/01/09 04:35:37;;;;;;;23.38;4.57;;;;;;;2.85;100.00;99333.66;4989171;28;20042;-93
2022/01/09 04:38:03;;;;;;;18.48;5.68;;;;;;;2.75;100.00;99340.22;4990568;28;20030;-94
2022/01/09 04:40:29;;;;;;;18.95;4.22;;;;;;;2.80;100.00;99351.41;4990505;28;20034;-93
2022/01/09 04:42:58;;;;;;;20.63;4.20;;;;;;;2.80;100.00;99347.91;4983874;28;20018;-93
2022/01/09 04:45:25;;;;;;;23.85;4.90;;;;;;;2.68;100.00;99344.91;4975570;28;20081;-93
2022/01/09 04:47:52;;;;;;;16.77;4.72;;;;;;;2.74;100.00;99368.25;4971702;28;20011;-94
2022/01/09 04:50:28;;;;;;;22.23;4.30;;;;;;;2.72;100.00;99377.16;4971149;28;20535;-93
2022/01/09 04:53:00;;;;;;;21.70;4.20;;;;;;;2.64;100.00;99369.59;4970652;28;20039;-93
2022/01/09 04:55:29;;;;;;;21.23;4.55;;;;;;;2.71;100.00;99396.44;4974369;28;20547;-92
2022/01/09 04:57:54;;;;;;;20.75;4.28;;;;;;;2.61;100.00;99397.75;4985774;28;20198;-92
2022/01/09 05:00:20;;;;;;;20.05;3.65;;;;;;;2.67;100.00;99395.69;4994787;28;20034;-94
2022/01/09 05:02:45;;;;;;;20.63;3.92;;;;;;;2.61;100.00;99400.38;4982323;28;20031;-94
2022/01/09 05:05:11;;;;;;;25.70;4.50;;;;;;;2.62;100.00;99420.47;4975924;28;20082;-94
2022/01/09 05:07:37;;;;;;;15.77;4.47;;;;;;;2.69;100.00;99424.56;4958048;28;20031;-92
2022/01/09 05:10:04;;;;;;;22.00;4.28;;;;;;;2.58;100.00;99414.47;4957696;28;20390;-92
2022/01/09 05:12:30;;;;;;;20.85;4.35;;;;;;;2.64;100.00;99434.41;4961601;28;20042;-93
2022/01/09 05:14:55;;;;;;;16.85;4.68;;;;;;;2.61;100.00;99432.75;5001215;28;20030;-94
2022/01/09 05:17:20;;;;;;;27.20;5.15;;;;;;;2.60;100.00;99432.81;5003481;28;20264;-93
2022/01/09 05:19:47;;;;;;;16.98;4.30;;;;;;;2.65;100.00;99450.09;4994759;28;20018;-93
2022/01/09 05:22:12;;;;;;;18.83;4.38;;;;;;;2.71;100.00;99460.34;4987986;28;20026;-92
2022/01/09 05:24:38;;;;;;;18.33;3.78;;;;;;;2.65;100.00;99459.75;4993225;28;20037;-94
2022/01/09 05:27:03;;;;;;;24.98;4.88;;;;;;;2.72;100.00;99474.34;4994232;28;20064;-92
2022/01/09 05:29:29;;;;;;;22.77;4.40;;;;;;;2.81;100.00;99475.75;4980165;28;20178;-94
2022/01/09 05:31:54;;;;;;;24.05;4.78;;;;;;;2.79;100.00;99470.53;4975207;28;20031;-94
2022/01/09 05:34:20;;;;;;;26.20;4.38;;;;;;;2.78;100.00;99479.34;4975134;28;20100;-94
2022/01/09 05:36:45;;;;;;;24.13;4.20;;;;;;;2.72;100.00;99466.47;4957463;28;20042;-95
2022/01/09 05:39:10;;;;;;;22.13;4.60;;;;;;;2.78;100.00;99487.22;4974414;28;20037;-94
2022/01/09 05:41:36;;;;;;;21.23;4.68;;;;;;;2.69;100.00;99477.94;4978907;28;20034;-93
2022/01/09 05:44:01;;;;;;;22.85;4.75;;;;;;;2.73;100.00;99486.56;4991785;28;20034;-93
2022/01/09 05:46:27;;;;;;;15.32;4.65;;;;;;;2.64;100.00;99481.69;4994979;28;20354;-94
2022/01/09 05:48:52;;;;;;;16.20;5.00;;;;;;;2.72;100.00;99493.59;4978850;28;20051;-93
2022/01/09 05:51:17;;;;;;;22.52;4.82;;;;;;;2.66;100.00;99495.59;4974534;28;20096;-92
2022/01/09 05:53:43;;;;;;;15.75;4.82;;;;;;;2.70;100.00;99505.06;4976728;28;20398;-92
2022/01/09 05:56:08;;;;;;;20.27;4.50;;;;;;;2.66;100.00;99509.59;4974775;28;20492;-93
2022/01/09 05:58:35;;;;;;;14.32;4.35;;;;;;;2.66;100.00;99508.75;4974745;28;20030;-93
2022/01/09 06:01:01;;;;;;;15.80;3.97;;;;;;;2.62;100.00;99504.53;4974834;28;20030;-94
2022/01/09 06:03:26;;;;;;;20.83;4.10;;;;;;;2.53;100.00;99494.38;4975404;28;20029;-95
2022/01/09 06:05:52;;;;;;;26.55;4.43;;;;;;;2.62;100.00;99510.63;4974177;28;20033;-94
2022/01/09 06:08:17;;;;;;;23.25;4.22;;;;;;;2.49;100.00;99510.25;4974489;28;20476;-94
2022/01/09 06:10:42;;;;;;;19.83;4.03;;;;;;;2.59;100.00;99520.41;4974438;28;20030;-94
2022/01/09 06:13:08;;;;;;;18.58;5.30;;;;;;;2.48;100.00;99495.41;4976020;28;20031;-93
2022/01/09 06:15:33;;;;;;;13.95;4.07;;;;;;;2.60;100.00;99516.88;4975415;28;20034;-93
2022/01/09 06:17:58;;;;;;;19.50;4.78;;;;;;;2.64;100.00;99535.09;4974596;28;20532;-93
2022/01/09 06:20:23;;;;;;;19.92;4.20;;;;;;;2.61;100.00;99537.81;4974551;28;20030;-94
2022/01/09 06:22:49;;;;;;;17.38;3.80;;;;;;;2.53;100.00;99536.41;4988507;28;20034;-94
2022/01/09 06:25:15;;;;;;;22.05;4.10;;;;;;;2.60;100.00;99537.91;4977233;28;20038;-95
2022/01/09 06:27:40;;;;;;;17.05;3.67;;;;;;;2.55;100.00;99551.22;5018079;28;20027;-95
2022/01/09 06:30:07;;;;;;;10.85;3.50;;;;;;;2.51;100.00;99549.63;4993192;28;20114;-93
2022/01/09 06:32:32;;;;;;;17.35;4.10;;;;;;;2.45;100.00;99539.31;5001654;28;20025;-94
2022/01/09 06:34:58;;;;;;;17.75;4.43;;;;;;;2.58;100.00;99560.72;5005554;28;20034;-93
2022/01/09 06:37:23;;;;;;;18.50;3.90;;;;;;;2.49;100.00;99557.53;4978988;28;20041;-93
2022/01/09 06:39:49;;;;;;;19.98;4.68;;;;;;;2.57;100.00;99567.75;4987676;28;20027;-88
2022/01/09 06:42:14;;;;;;;18.30;3.75;;;;;;;2.56;100.00;99573.06;4972465;28;20089;-89
2022/01/09 06:44:40;;;;;;;16.10;4.47;;;;;;;2.54;100.00;99574.88;4970845;28;20066;-88
2022/01/09 06:47:05;;;;;;;19.25;4.90;;;;;;;2.53;100.00;99575.81;4971057;28;20027;-90
2022/01/09 06:49:31;;;;;;;21.98;4.30;;;;;;;2.48;100.00;99568.09;4972900;28;21569;-89
2022/01/09 06:51:56;;;;;;;15.20;4.20;;;;;;;2.50;100.00;99568.88;4985500;28;20042;-92
2022/01/09 06:54:21;;;;;;;19.30;4.80;;;;;;;2.50;100.00;99569.75;4992067;28;20028;-90
2022/01/09 06:56:47;;;;;;;16.45;4.53;;;;;;;2.49;100.00;99575.91;4991594;28;20076;-92
2022/01/09 06:59:12;;;;;;;20.40;4.85;;;;;;;2.44;100.00;99583.13;4986937;28;20022;-91
2022/01/09 07:01:37;;;;;;;19.23;3.78;;;;;;;2.55;100.00;99592.34;4977401;28;20038;-90
2022/01/09 07:04:03;;;;;;;16.58;3.63;;;;;;;2.54;100.00;99609.03;4991166;28;20483;-91
2022/01/09 07:06:28;;;;;;;15.85;3.75;;;;;;;2.50;100.00;99593.38;4991172;28;20026;-88
2022/01/09 07:08:53;;;;;;;17.00;4.15;;;;;;;2.59;100.00;99613.22;4990865;28;20045;-88
2022/01/09 07:11:18;;;;;;;16.75;3.47;;;;;;;2.58;100.00;99619.38;4978851;28;20117;-92
2022/01/09 07:13:44;;;;;;;13.30;4.38;;;;;;;2.56;100.00;99644.84;4991728;28;20053;-91
2022/01/09 07:16:09;;;;;;;17.73;4.40;;;;;;;2.59;100.00;99641.22;4984693;28;20053;-89
2022/01/09 07:18:34;;;;;;;17.02;4.07;;;;;;;2.47;100.00;99618.94;4981649;28;20037;-90
2022/01/09 07:21:00;;;;;;;19.15;3.70;;;;;;;2.55;100.00;99645.78;4977464;28;20041;-92
2022/01/09 07:23:25;;;;;;;21.08;4.38;;;;;;;2.56;100.00;99644.00;4971354;28;20493;-90
2022/01/09 07:25:51;;;;;;;16.55;4.45;;;;;;;2.53;100.00;99650.22;4971148;28;20082;-91
2022/01/09 07:28:16;;;;;;;18.50;4.25;;;;;;;2.52;100.00;99650.28;4972477;28;20041;-84
2022/01/09 07:30:41;;;;;;;19.58;3.88;;;;;;;2.50;100.00;99655.56;4975636;28;20277;-88
2022/01/09 07:33:07;;;;;;;17.48;4.80;;;;;;;2.55;100.00;99668.53;4984098;28;20047;-89
2022/01/09 07:35:32;;;;;;;21.02;4.28;;;;;;;2.49;100.00;99659.09;4974105;28;20027;-88
2022/01/09 07:37:58;;;;;;;18.00;3.72;;;;;;;2.58;100.00;99673.66;4981606;28;20041;-89
2022/01/09 07:40:23;;;;;;;21.63;4.53;;;;;;;2.60;100.00;99672.72;4986276;28;20027;-88
2022/01/09 07:42:49;;;;;;;16.50;4.32;;;;;;;2.59;100.00;99684.16;4991058;28;20022;-90
2022/01/09 07:45:16;;;;;;;17.90;4.40;;;;;;;2.42;100.00;99650.59;5169087;23;20334;-94
2022/01/09 07:47:41;;;;;;;13.75;4.22;;;;;;;2.14;100.00;99602.66;4988186;28;20006;-96
2022/01/09 07:50:11;;;;;;;15.27;3.72;;;;;;;2.25;100.00;99632.81;5000261;28;20049;-96
2022/01/09 07:52:38;;;;;;;22.38;4.30;;;;;;;2.45;100.00;99676.75;4993792;28;20440;-92
2022/01/09 07:55:05;;;;;;;15.98;4.68;;;;;;;2.15;100.00;99641.09;5058775;23;20085;-94
2022/01/09 07:57:31;;;;;;;12.63;4.03;;;;;;;2.46;100.00;99688.97;5015944;28;20108;-88
2022/01/09 07:59:57;;;;;;;22.00;4.38;;;;;;;2.47;100.00;99698.56;5006584;28;20034;-89
2022/01/09 08:02:23;;;;;;;16.45;3.58;;;;;;;2.47;100.00;99702.97;5013648;28;20293;-89
2022/01/09 08:04:49;;;;;;;11.00;2.70;;;;;;;2.48;100.00;99712.56;5027873;28;20025;-90
2022/01/09 08:07:14;;;;;;;12.95;3.47;;;;;;;2.32;100.00;99690.38;5021922;28;20068;-91
2022/01/09 08:09:40;;;;;;;11.43;3.00;;;;;;;2.42;100.00;99721.50;5009525;28;20045;-91
2022/01/09 08:12:08;;;;;;;11.18;3.30;;;;;;;2.30;100.00;99703.56;5005406;28;20033;-95
2022/01/09 08:14:34;;;;;;;10.32;3.38;;;;;;;2.37;100.00;99722.56;5016718;28;20056;-90
2022/01/09 08:16:59;;;;;;;9.73;2.90;;;;;;;2.34;100.00;99730.56;5011493;28;20034;-88
2022/01/09 08:19:25;;;;;;;13.60;3.17;;;;;;;2.33;100.00;99729.69;5016863;28;20141;-89
2022/01/09 08:21:50;;;;;;;18.73;3.42;;;;;;;2.34;100.00;99730.56;5008282;28;20026;-90
2022/01/09 08:24:15;;;;;;;14.23;3.30;;;;;;;2.34;100.00;99735.81;5010285;28;20038;-91
2022/01/09 08:26:41;;;;;;;12.18;3.40;;;;;;;2.28;100.00;99736.88;5010729;28;20030;-86
2022/01/09 08:29:06;;;;;;;13.05;3.25;;;;;;;2.29;100.00;99743.84;5012543;28;20484;-93
2022/01/09 08:31:31;;;;;;;14.75;3.60;;;;;;;2.27;100.00;99736.94;5009380;28;20068;-90
2022/01/09 08:33:56;;;;;;;15.27;4.50;;;;;;;2.35;100.00;99743.66;5013414;28;20134;-89
2022/01/09 08:36:22;;;;;;;11.70;3.55;;;;;;;2.47;100.00;99742.38;5036037;28;20057;-90
2022/01/09 08:38:48;;;;;;;19.05;3.90;;;;;;;2.49;100.00;99751.88;5016725;28;20089;-86
2022/01/09 08:41:13;;;;;;;15.95;4.18;;;;;;;2.60;100.00;99763.81;4989985;28;20026;-92
2022/01/09 08:43:39;;;;;;;19.50;3.70;;;;;;;2.59;100.00;99762.94;5010682;28;20506;-89
2022/01/09 08:46:05;;;;;;;15.60;3.72;;;;;;;2.54;100.00;99759.59;5008910;28;20057;-87
2022/01/09 08:48:30;;;;;;;21.60;5.00;;;;;;;2.47;100.00;99769.50;5010223;28;20395;-95
2022/01/09 08:50:55;;;;;;;13.82;3.80;;;;;;;2.44;100.00;99769.59;5006600;28;20026;-88
2022/01/09 08:53:20;;;;;;;19.65;4.65;;;;;;;2.36;100.00;99755.88;5008135;28;20026;-90
2022/01/09 08:55:46;;;;;;;20.35;4.90;;;;;;;2.41;100.00;99774.09;5011731;28;20387;-92
2022/01/09 08:58:11;;;;;;;15.93;3.72;;;;;;;2.47;100.00;99782.63;5006944;28;20064;-95
2022/01/09 09:00:36;;;;;;;20.38;5.05;;;;;;;2.59;100.00;99789.22;5011886;28;20095;-89
2022/01/09 09:03:04;;;;;;;16.30;3.90;;;;;;;2.60;100.00;99787.44;5004907;28;20053;-90
2022/01/09 09:05:29;;;;;;;15.80;3.88;;;;;;;2.53;100.00;99776.28;5036742;23;20054;-96
2022/01/09 09:07:55;;;;;;;14.55;3.80;;;;;;;2.58;100.00;99786.63;4997919;28;20037;-94
2022/01/09 09:10:20;;;;;;;22.25;4.55;;;;;;;2.62;100.00;99798.75;4994877;28;20104;-96
2022/01/09 09:12:45;;;;;;;15.13;3.78;;;;;;;2.69;100.00;99800.25;5119102;23;20519;-89
2022/01/09 09:15:12;;;;;;;14.20;3.88;;;;;;;2.38;100.00;99751.44;5074315;23;20017;-92
2022/01/09 09:17:40;;;;;;;16.90;4.15;;;;;;;2.29;100.00;99759.59;4995744;28;20031;-92
2022/01/09 09:20:06;;;;;;;12.10;4.03;;;;;;;2.18;100.00;99749.47;4993549;28;20034;-94
2022/01/09 09:22:31;;;;;;;15.73;4.40;;;;;;;2.49;100.00;99824.59;4990232;28;20061;-88
2022/01/09 09:24:57;;;;;;;15.18;3.90;;;;;;;2.32;100.00;99783.13;4992070;28;20065;-88
2022/01/09 09:27:29;;;;;;;17.92;4.10;;;;;;;2.68;100.00;99825.69;4973775;28;20030;-90
2022/01/09 09:29:56;;;;;;;14.23;5.38;;;;;;;2.78;100.00;99815.69;4993818;28;20453;-96
2022/01/09 09:32:21;;;;;;;14.95;4.00;;;;;;;2.91;100.00;99818.75;4994237;28;20031;-91
2022/01/09 09:34:47;;;;;;;16.00;3.95;;;;;;;3.05;100.00;99831.38;4979487;28;20510;-93
2022/01/09 09:37:12;;;;;;;14.05;3.85;;;;;;;2.99;100.00;99833.31;4994579;28;20034;-95
2022/01/09 09:39:37;;;;;;;13.02;3.45;;;;;;;2.86;100.00;99839.94;4996955;28;20030;-96
2022/01/09 09:42:03;;;;;;;16.30;3.00;;;;;;;2.83;100.00;99852.31;5067303;23;20058;-95
2022/01/09 09:44:29;;;;;;;13.77;3.45;;;;;;;2.52;100.00;99807.88;4997884;28;20031;-91
2022/01/09 09:46:55;;;;;;;12.90;3.35;;;;;;;2.49;100.00;99814.06;4998149;28;20026;-95
2022/01/09 09:49:22;;;;;;;15.73;4.22;;;;;;;2.65;100.00;99845.94;4990553;28;20049;-93
2022/01/09 09:51:47;;;;;;;17.88;3.40;;;;;;;2.71;100.00;99846.56;5001739;28;20038;-92
2022/01/09 09:54:13;;;;;;;11.30;3.15;;;;;;;2.82;100.00;99861.97;4992316;28;20480;-89
2022/01/09 09:56:38;;;;;;;15.27;4.75;;;;;;;2.95;100.00;99865.88;4999819;28;20018;-91
2022/01/09 09:59:04;;;;;;;18.13;4.85;;;;;;;3.09;100.00;99862.75;5010798;28;20035;-90
2022/01/09 10:01:35;;;;;;;18.73;4.68;;;;;;;3.30;100.00;99858.50;5002565;28;20400;-95
2022/01/09 10:04:06;;;;;;;13.98;4.38;;;;;;;3.49;100.00;99867.44;5002723;28;20061;-91
2022/01/09 10:06:35;;;;;;;16.42;4.72;;;;;;;3.63;100.00;99864.25;4994085;28;20054;-93
2022/01/09 10:09:08;;;;;;;13.23;4.20;;;;;;;3.72;100.00;99874.47;4993214;28;20547;-94
2022/01/09 10:11:56;;;;;;;14.27;4.85;;;;;;;3.55;100.00;99871.59;4991206;28;20046;-94
2022/01/09 10:14:30;;;;;;;16.73;3.65;;;;;;;3.50;100.00;99882.28;4993702;28;20034;-93
2022/01/09 10:17:13;;;;;;;17.85;4.25;;;;;;;3.55;100.00;99878.63;4993053;28;20259;-92
2022/01/09 10:20:08;;;;;;;12.82;4.20;;;;;;;3.65;100.00;99883.50;4991979;28;20495;-93
2022/01/09 10:22:40;;;;;;;15.13;3.78;;;;;;;3.79;100.00;99885.59;4954959;28;20496;-91
2022/01/09 10:25:31;;;;;;;13.13;3.83;;;;;;;3.95;100.00;99881.47;4984338;28;20034;-91
2022/01/09 10:27:59;;;;;;;14.25;3.92;;;;;;;4.00;100.00;99886.53;4990484;28;20445;-93
2022/01/09 10:30:28;;;;;;;15.65;4.35;;;;;;;3.94;100.00;99889.44;4988681;28;20045;-89
2022/01/09 10:32:58;;;;;;;13.52;3.47;;;;;;;3.94;100.00;99892.06;4973682;28;20026;-88
2022/01/09 10:35:25;;;;;;;8.82;3.20;;;;;;;3.95;100.00;99899.03;5002707;28;20056;-96
2022/01/09 10:38:07;;;;;;;11.70;3.50;;;;;;;3.92;100.00;99896.50;4988503;28;20031;-96
2022/01/09 10:40:36;;;;;;;12.02;3.45;;;;;;;3.90;100.00;99898.38;4981641;28;20064;-90
2022/01/09 10:43:04;;;;;;;12.60;3.83;;;;;;;3.93;99.82;99904.38;4983779;28;20182;-88
2022/01/09 10:45:31;;;;;;;14.82;4.00;;;;;;;3.91;99.73;99902.72;4988381;28;20049;-89
2022/01/09 10:48:09;;;;;;;13.00;5.00;;;;;;;3.88;99.93;99901.03;4990610;28;20026;-88
2022/01/09 10:50:40;;;;;;;18.67;4.35;;;;;;;3.94;99.97;99908.72;4989145;28;20026;-88
2022/01/09 10:53:17;;;;;;;12.75;3.50;;;;;;;4.03;99.90;99915.41;4979243;28;20122;-89
2022/01/09 10:55:44;;;;;;;11.48;4.25;;;;;;;4.02;99.67;99916.31;4963675;28;20434;-83
2022/01/09 10:58:21;;;;;;;16.85;4.28;;;;;;;4.06;99.86;99917.06;4989793;28;20038;-87
2022/01/09 11:00:46;;;;;;;13.98;4.28;;;;;;;4.19;99.60;99915.66;4986494;28;20372;-86
2022/01/09 11:03:12;;;;;;;17.00;5.13;;;;;;;4.10;98.94;99916.03;4989584;28;20018;-85
2022/01/09 11:05:38;;;;;;;15.48;4.63;;;;;;;4.06;98.51;99927.59;4989934;28;20029;-86
2022/01/09 11:08:04;;;;;;;19.55;4.63;;;;;;;4.06;98.71;99922.34;4989766;28;20027;-86
2022/01/09 11:10:30;;;;;;;11.48;3.92;;;;;;;4.13;98.36;99932.53;4988132;28;20495;-85
2022/01/09 11:12:59;;;;;;;13.02;3.75;;;;;;;4.18;98.78;99913.91;4990234;28;20045;-86
2022/01/09 11:15:29;;;;;;;13.15;3.97;;;;;;;4.38;97.79;99935.06;4991031;28;20061;-87
2022/01/09 11:17:58;;;;;;;14.23;3.97;;;;;;;4.31;97.10;99919.59;4986820;28;20035;-89
2022/01/09 11:20:23;;;;;;;17.00;3.38;;;;;;;4.38;95.81;99936.84;4987411;28;20034;-88
2022/01/09 11:22:49;;;;;;;16.45;3.22;;;;;;;4.41;95.75;99945.50;4989940;28;20839;-87